createdAt,value
2022-09-14T00:02:26.728Z,6.47
2022-09-14T00:05:06.194Z,6.60
2022-09-14T00:07:40.353Z,8.20
2022-09-14T00:10:14.988Z,6.00
2022-09-14T00:12:53.828Z,5.90
2022-09-14T00:15:31.041Z,6.28
2022-09-14T00:18:05.725Z,7.20
2022-09-14T00:20:43.403Z,5.97
2022-09-14T00:23:20.036Z,8.05
2022-09-14T00:25:54.926Z,6.60
2022-09-14T00:28:32.695Z,7.25
2022-09-14T00:31:11.614Z,7.72
2022-09-14T00:33:45.472Z,8.18
2022-09-14T00:36:24.458Z,6.17
2022-09-14T00:39:03.034Z,5.90
2022-09-14T00:41:40.590Z,6.03
2022-09-14T00:44:45.095Z,6.25
2022-09-14T00:47:23.311Z,8.88
2022-09-14T00:50:01.405Z,7.80
2022-09-14T00:52:37.310Z,9.80
2022-09-14T00:57:49.627Z,12.50
2022-09-14T01:00:26.291Z,12.73
2022-09-14T01:03:03.316Z,13.97
2022-09-14T01:05:37.863Z,14.75
2022-09-14T01:08:21.248Z,14.48
2022-09-14T01:11:03.741Z,15.75
2022-09-14T01:13:37.458Z,18.48
2022-09-14T01:16:16.665Z,19.60
2022-09-14T01:18:57.201Z,14.25
2022-09-14T01:21:35.069Z,14.93
2022-09-14T01:24:12.176Z,14.90
2022-09-14T01:26:56.690Z,15.15
2022-09-14T01:29:29.482Z,17.85
2022-09-14T01:32:07.862Z,15.00
2022-09-14T01:34:43.955Z,15.90
2022-09-14T01:37:22.216Z,13.37
2022-09-14T01:40:00.322Z,10.93
2022-09-14T01:42:34.719Z,14.70
2022-09-14T01:45:12.798Z,14.57
2022-09-14T01:47:53.903Z,11.70
2022-09-14T01:50:28.679Z,11.60
2022-09-14T01:53:03.716Z,13.43
2022-09-14T01:55:43.879Z,11.20
2022-09-14T01:58:20.047Z,10.37
2022-09-14T02:00:54.167Z,10.10
2022-09-14T02:03:33.361Z,11.40
2022-09-14T02:06:10.392Z,12.00
2022-09-14T02:08:44.515Z,11.93
2022-09-14T02:11:19.033Z,12.80
2022-09-14T02:13:53.817Z,9.90
2022-09-14T02:16:31.496Z,10.40
2022-09-14T02:19:09.447Z,10.83
2022-09-14T02:21:46.499Z,10.82
2022-09-14T02:24:23.174Z,10.50
2022-09-14T02:27:00.482Z,11.43
2022-09-14T02:29:34.642Z,10.70
2022-09-14T02:32:15.718Z,10.05
2022-09-14T02:34:57.136Z,11.73
2022-09-14T02:37:35.897Z,12.40
2022-09-14T02:40:15.833Z,9.77
2022-09-14T02:42:49.917Z,8.98
2022-09-14T02:45:28.265Z,9.00
2022-09-14T02:48:06.806Z,9.00
2022-09-14T02:50:43.999Z,8.90
2022-09-14T02:53:19.594Z,9.85
2022-09-14T02:55:58.365Z,9.55
2022-09-14T02:58:37.343Z,9.50
2022-09-14T03:01:12.740Z,8.65
2022-09-14T03:03:49.118Z,9.70
2022-09-14T03:06:29.500Z,11.60
2022-09-14T03:09:04.350Z,9.60
2022-09-14T03:11:38.614Z,8.97
2022-09-14T03:14:14.440Z,7.93
2022-09-14T03:16:48.390Z,9.73
2022-09-14T03:19:22.393Z,9.05
2022-09-14T03:21:59.351Z,8.15
2022-09-14T03:24:34.211Z,8.63
2022-09-14T03:27:08.612Z,8.00
2022-09-14T03:29:44.149Z,9.40
2022-09-14T03:32:17.385Z,9.75
2022-09-14T03:34:51.666Z,8.90
2022-09-14T03:37:28.405Z,11.60
2022-09-14T03:40:03.863Z,9.13
2022-09-14T03:42:38.321Z,10.23
2022-09-14T03:45:13.814Z,9.13
2022-09-14T03:47:50.143Z,8.63
2022-09-14T03:50:25.721Z,10.45
2022-09-14T03:52:59.775Z,8.70
2022-09-14T03:55:36.259Z,9.13
2022-09-14T03:58:09.223Z,10.05
2022-09-14T04:00:44.312Z,7.70
2022-09-14T04:03:19.018Z,8.33
2022-09-14T04:06:05.571Z,11.10
2022-09-14T04:08:40.007Z,8.60
2022-09-14T04:11:21.941Z,8.75
2022-09-14T04:13:56.697Z,7.85
2022-09-14T04:16:31.620Z,9.68
2022-09-14T04:19:07.608Z,8.83
2022-09-14T04:24:29.888Z,8.10
2022-09-14T04:27:07.524Z,9.10
2022-09-14T04:29:41.365Z,12.45
2022-09-14T04:32:16.790Z,9.07
2022-09-14T04:34:52.346Z,12.55
2022-09-14T04:37:26.697Z,10.32
2022-09-14T04:40:00.703Z,11.05
2022-09-14T04:42:43.227Z,10.10
2022-09-14T04:45:18.941Z,10.10
2022-09-14T04:47:54.398Z,10.37
2022-09-14T04:50:30.000Z,9.40
2022-09-14T04:53:09.924Z,12.82
2022-09-14T04:55:44.867Z,11.40
2022-09-14T04:58:22.241Z,10.70
2022-09-14T05:00:58.713Z,11.45
2022-09-14T05:03:31.993Z,10.30
2022-09-14T05:06:06.571Z,9.75
2022-09-14T05:08:41.003Z,13.35
2022-09-14T05:11:16.400Z,10.60
2022-09-14T05:13:56.108Z,13.15
2022-09-14T05:16:33.031Z,12.15
2022-09-14T05:19:06.746Z,11.68
2022-09-14T05:21:40.840Z,12.07
2022-09-14T05:24:16.741Z,16.63
2022-09-14T05:29:26.108Z,19.17
2022-09-14T05:32:00.553Z,18.83
2022-09-14T05:34:34.327Z,15.60
2022-09-14T05:37:09.102Z,21.73
2022-09-14T05:39:43.612Z,26.02
2022-09-14T05:42:18.625Z,28.90
2022-09-14T05:45:01.565Z,33.25
2022-09-14T05:47:39.115Z,36.43
2022-09-14T05:50:17.837Z,37.67
2022-09-14T05:52:53.005Z,31.35
2022-09-14T05:55:29.074Z,34.90
2022-09-14T05:58:04.770Z,32.38
2022-09-14T06:00:39.814Z,30.70
2022-09-14T06:03:17.064Z,25.65
2022-09-14T06:05:55.021Z,25.95
2022-09-14T06:08:33.688Z,26.75
2022-09-14T06:11:09.853Z,26.52
2022-09-14T06:13:45.336Z,25.50
2022-09-14T06:16:21.353Z,23.70
2022-09-14T06:18:58.747Z,23.30
2022-09-14T06:21:27.844Z,22.05
2022-09-14T06:24:01.331Z,20.45
2022-09-14T06:26:35.775Z,20.90
2022-09-14T06:29:11.021Z,15.57
2022-09-14T06:31:47.125Z,19.08
2022-09-14T06:34:24.146Z,17.42
2022-09-14T06:36:59.455Z,15.35
2022-09-14T06:39:32.852Z,17.50
2022-09-14T06:42:08.938Z,17.05
2022-09-14T06:44:47.779Z,15.00
2022-09-14T06:47:22.764Z,14.57
2022-09-14T06:49:59.365Z,14.00
2022-09-14T06:52:34.270Z,13.73
2022-09-14T06:55:11.119Z,13.10
2022-09-14T06:57:51.013Z,13.60
2022-09-14T07:00:24.941Z,14.50
2022-09-14T07:03:00.120Z,13.40
2022-09-14T07:05:40.902Z,12.70
2022-09-14T07:08:16.941Z,13.85
2022-09-14T07:11:00.000Z,13.80
2022-09-14T07:13:35.729Z,14.02
2022-09-14T07:16:11.311Z,13.90
2022-09-14T07:18:46.342Z,13.75
2022-09-14T07:21:23.868Z,12.80
2022-09-14T07:24:01.207Z,11.90
2022-09-14T07:26:39.745Z,11.70
2022-09-14T07:29:16.772Z,11.60
2022-09-14T07:31:52.535Z,12.05
2022-09-14T07:34:27.246Z,11.50
2022-09-14T07:37:04.454Z,9.63
2022-09-14T07:39:38.628Z,9.70
2022-09-14T07:42:14.170Z,10.65
2022-09-14T07:44:48.019Z,9.23
2022-09-14T07:47:23.274Z,8.18
2022-09-14T07:49:59.572Z,9.60
2022-09-14T07:52:39.045Z,8.15
2022-09-14T07:55:15.664Z,7.87
2022-09-14T07:57:56.389Z,7.65
2022-09-14T08:00:31.173Z,7.05
2022-09-14T08:03:04.380Z,6.68
2022-09-14T08:05:39.167Z,6.80
2022-09-14T08:08:17.225Z,5.60
2022-09-14T08:10:51.753Z,5.60
2022-09-14T08:13:25.506Z,5.20
2022-09-14T08:16:01.391Z,4.60
2022-09-14T08:21:10.846Z,5.80
2022-09-14T08:23:50.177Z,5.20
2022-09-14T08:26:31.124Z,5.00
2022-09-14T08:29:01.692Z,4.60
2022-09-14T08:31:35.064Z,4.80
2022-09-14T08:34:11.458Z,3.95
2022-09-14T08:36:45.726Z,4.30
2022-09-14T08:39:23.498Z,5.57
2022-09-14T08:41:59.042Z,5.50
2022-09-14T08:44:34.986Z,5.60
2022-09-14T08:47:12.699Z,5.30
2022-09-14T08:49:52.117Z,4.50
2022-09-14T08:52:29.567Z,4.75
2022-09-14T08:55:13.797Z,4.32
2022-09-14T08:57:50.638Z,4.30
2022-09-14T09:00:25.921Z,3.20
2022-09-14T09:03:22.551Z,3.10
2022-09-14T09:08:36.035Z,3.05
2022-09-14T09:11:19.363Z,3.00
2022-09-14T09:13:55.584Z,3.42
2022-09-14T09:16:37.287Z,3.95
2022-09-14T09:19:14.575Z,3.17
2022-09-14T09:21:49.774Z,2.90
2022-09-14T09:24:34.131Z,2.95
2022-09-14T09:27:16.405Z,3.15
2022-09-14T09:29:50.696Z,2.92
2022-09-14T09:32:28.494Z,3.70
2022-09-14T09:35:23.647Z,2.73
2022-09-14T09:38:18.138Z,3.50
2022-09-14T09:40:58.080Z,2.70
2022-09-14T09:43:49.495Z,3.60
2022-09-14T09:46:27.800Z,3.00
2022-09-14T09:49:03.411Z,2.60
2022-09-14T09:51:38.811Z,3.00
2022-09-14T09:54:24.693Z,2.42
2022-09-14T09:56:59.677Z,2.95
2022-09-14T09:59:38.527Z,3.15
2022-09-14T10:02:27.771Z,2.67
2022-09-14T10:05:25.754Z,2.40
2022-09-14T10:08:02.002Z,3.20
2022-09-14T10:10:44.969Z,4.00
2022-09-14T10:13:25.494Z,3.60
2022-09-14T10:16:12.374Z,3.50
2022-09-14T10:18:49.080Z,3.13
2022-09-14T10:21:23.562Z,3.80
2022-09-14T10:24:08.549Z,3.03
2022-09-14T10:26:42.646Z,3.03
2022-09-14T10:29:33.250Z,3.92
2022-09-14T10:32:19.133Z,3.88
2022-09-14T10:34:54.447Z,4.15
2022-09-14T10:37:35.468Z,4.10
2022-09-14T10:40:17.429Z,3.45
2022-09-14T10:43:01.456Z,4.93
2022-09-14T10:45:38.438Z,6.30
2022-09-14T10:48:39.301Z,4.65
2022-09-14T10:51:32.965Z,4.03
2022-09-14T10:54:17.815Z,3.95
2022-09-14T10:56:58.636Z,4.50
2022-09-14T10:59:35.899Z,4.40
2022-09-14T11:02:19.244Z,4.32
2022-09-14T11:05:05.264Z,5.15
2022-09-14T11:07:42.188Z,4.30
2022-09-14T11:10:23.015Z,4.10
2022-09-14T11:13:07.230Z,4.70
2022-09-14T11:15:44.591Z,4.22
2022-09-14T11:18:24.609Z,4.03
2022-09-14T11:21:40.014Z,3.97
2022-09-14T11:24:14.884Z,4.68
2022-09-14T11:26:54.041Z,3.87
2022-09-14T11:29:29.311Z,4.07
2022-09-14T11:32:20.331Z,4.53
2022-09-14T11:34:59.569Z,4.57
2022-09-14T11:37:41.791Z,4.40
2022-09-14T11:40:20.032Z,4.30
2022-09-14T11:43:01.013Z,4.30
2022-09-14T11:45:49.940Z,4.40
2022-09-14T11:48:42.741Z,4.43
2022-09-14T11:51:19.722Z,4.85
2022-09-14T11:54:01.315Z,3.90
2022-09-14T11:56:36.879Z,4.20
2022-09-14T11:59:10.907Z,4.60
2022-09-14T12:01:46.600Z,5.35
2022-09-14T12:04:21.122Z,4.80
2022-09-14T12:07:00.457Z,4.95
2022-09-14T12:09:57.402Z,4.28
2022-09-14T12:13:01.475Z,4.05
2022-09-14T12:15:41.967Z,4.40
2022-09-14T12:18:23.253Z,3.80
2022-09-14T12:21:05.752Z,4.03
2022-09-14T12:23:58.111Z,4.20
2022-09-14T12:26:38.154Z,6.22
2022-09-14T12:29:37.485Z,4.30
2022-09-14T12:32:29.372Z,3.50
2022-09-14T12:35:34.113Z,5.13
2022-09-14T12:38:07.975Z,3.72
2022-09-14T12:40:45.017Z,3.75
2022-09-14T12:43:52.956Z,4.63
2022-09-14T12:46:54.472Z,4.60
2022-09-14T12:49:37.931Z,4.90
2022-09-14T12:53:04.254Z,5.10
2022-09-14T12:55:57.930Z,4.80
2022-09-14T12:58:29.762Z,4.60
2022-09-14T13:01:14.371Z,4.15
2022-09-14T13:03:54.028Z,4.60
2022-09-14T13:06:44.460Z,5.18
2022-09-14T13:09:21.829Z,4.80
2022-09-14T13:12:01.212Z,4.23
2022-09-14T13:14:37.694Z,4.80
2022-09-14T13:17:14.483Z,4.93
2022-09-14T13:19:56.982Z,4.82
2022-09-14T13:22:32.113Z,5.60
2022-09-14T13:25:02.674Z,5.20
2022-09-14T13:27:36.878Z,4.75
2022-09-14T13:30:19.976Z,5.80
2022-09-14T13:32:54.544Z,5.63
2022-09-14T13:35:32.632Z,6.22
2022-09-14T13:38:11.092Z,4.90
2022-09-14T13:40:43.464Z,4.57
2022-09-14T13:43:17.466Z,6.40
2022-09-14T13:45:49.912Z,5.82
2022-09-14T13:48:22.596Z,12.30
2022-09-14T13:51:02.124Z,6.57
2022-09-14T13:53:35.641Z,6.55
2022-09-14T13:56:23.666Z,8.80
2022-09-14T13:59:22.385Z,5.80
2022-09-14T14:01:58.507Z,5.60
2022-09-14T14:04:36.548Z,6.47
2022-09-14T14:07:22.180Z,5.35
2022-09-14T14:09:55.736Z,6.00
2022-09-14T14:12:29.466Z,6.20
2022-09-14T14:15:04.371Z,8.30
2022-09-14T14:17:40.480Z,6.90
2022-09-14T14:20:09.695Z,6.50
2022-09-14T14:22:49.118Z,6.68
2022-09-14T14:25:22.236Z,6.65
2022-09-14T14:28:01.376Z,6.80
2022-09-14T14:30:36.876Z,7.82
2022-09-14T14:33:13.630Z,7.30
2022-09-14T14:35:47.313Z,8.70
2022-09-14T14:38:25.329Z,9.18
2022-09-14T14:41:00.311Z,7.68
2022-09-14T14:43:34.421Z,7.13
2022-09-14T14:46:10.647Z,8.50
2022-09-14T14:48:43.778Z,9.10
2022-09-14T14:51:17.297Z,8.25
2022-09-14T14:53:54.218Z,8.63
2022-09-14T14:56:28.446Z,8.10
2022-09-14T14:59:02.560Z,7.47
2022-09-14T15:01:54.109Z,7.18
2022-09-14T15:04:42.075Z,7.82
2022-09-14T15:07:14.516Z,8.00
2022-09-14T15:09:51.924Z,8.20
2022-09-14T15:12:24.465Z,8.95
2022-09-14T15:14:56.902Z,8.23
2022-09-14T15:17:28.560Z,8.80
2022-09-14T15:20:02.377Z,6.53
2022-09-14T15:22:36.539Z,6.00
2022-09-14T15:25:13.422Z,7.00
2022-09-14T15:27:47.566Z,7.57
2022-09-14T15:30:24.238Z,7.75
2022-09-14T15:32:58.297Z,8.27
2022-09-14T15:35:32.550Z,7.90
2022-09-14T15:38:07.114Z,7.65
2022-09-14T15:40:45.752Z,7.50
2022-09-14T15:43:18.315Z,7.90
2022-09-14T15:45:52.612Z,7.30
2022-09-14T15:48:25.384Z,8.87
2022-09-14T15:51:01.014Z,9.07
2022-09-14T15:53:33.532Z,9.80
2022-09-14T15:56:12.753Z,9.23
2022-09-14T15:58:48.158Z,9.30
2022-09-14T16:01:23.086Z,7.38
2022-09-14T16:04:00.010Z,8.90
2022-09-14T16:06:32.538Z,8.45
2022-09-14T16:09:07.216Z,10.10
2022-09-14T16:11:40.646Z,9.30
2022-09-14T16:14:16.202Z,8.33
2022-09-14T16:16:48.646Z,9.30
2022-09-14T16:19:22.065Z,11.13
2022-09-14T16:21:54.600Z,12.05
2022-09-14T16:24:28.603Z,10.37
2022-09-14T16:27:02.570Z,11.23
2022-09-14T16:29:40.261Z,11.63
2022-09-14T16:32:13.666Z,10.23
2022-09-14T16:34:47.792Z,12.00
2022-09-14T16:37:20.722Z,12.40
2022-09-14T16:39:55.691Z,11.37
2022-09-14T16:42:28.617Z,11.07
2022-09-14T16:45:05.995Z,10.35
2022-09-14T16:47:40.259Z,12.40
2022-09-14T16:50:18.054Z,12.05
2022-09-14T16:52:51.486Z,9.93
2022-09-14T16:55:28.829Z,13.35
2022-09-14T16:58:03.196Z,11.40
2022-09-14T17:00:44.391Z,14.13
2022-09-14T17:03:19.672Z,12.95
2022-09-14T17:05:55.161Z,13.88
2022-09-14T17:08:28.690Z,13.02
2022-09-14T17:11:06.373Z,13.20
2022-09-14T17:13:42.043Z,11.52
2022-09-14T17:16:22.683Z,13.20
2022-09-14T17:18:57.882Z,13.05
2022-09-14T17:21:34.710Z,12.93
2022-09-14T17:24:09.782Z,12.90
2022-09-14T17:26:47.653Z,13.45
2022-09-14T17:29:21.470Z,14.50
2022-09-14T17:31:59.315Z,12.40
2022-09-14T17:34:36.411Z,11.70
2022-09-14T17:37:11.859Z,15.50
2022-09-14T17:39:47.580Z,16.47
2022-09-14T17:42:23.148Z,15.55
2022-09-14T17:44:59.030Z,15.45
2022-09-14T17:47:39.430Z,16.03
2022-09-14T17:50:14.789Z,14.25
2022-09-14T17:52:49.291Z,15.93
2022-09-14T17:55:25.271Z,15.35
2022-09-14T18:03:13.862Z,17.23
2022-09-14T18:05:57.712Z,17.38
2022-09-14T18:08:32.592Z,13.00
2022-09-14T18:11:11.653Z,12.80
2022-09-14T18:13:45.744Z,17.10
2022-09-14T18:16:23.281Z,16.27
2022-09-14T18:19:00.843Z,15.40
2022-09-14T18:21:34.320Z,14.85
2022-09-14T18:24:10.450Z,14.43
2022-09-14T18:26:46.894Z,15.80
2022-09-14T18:29:24.048Z,15.35
2022-09-14T18:31:58.172Z,11.57
2022-09-14T18:34:40.132Z,12.10
2022-09-14T18:37:16.009Z,11.45
2022-09-14T18:39:52.290Z,13.63
2022-09-14T18:42:27.323Z,12.85
2022-09-14T18:45:04.254Z,14.85
2022-09-14T18:47:38.903Z,15.93
2022-09-14T18:50:19.554Z,17.45
2022-09-14T18:52:55.081Z,16.27
2022-09-14T18:55:33.552Z,18.63
2022-09-14T18:58:08.221Z,18.10
2022-09-14T19:00:46.968Z,16.48
2022-09-14T19:03:22.858Z,16.65
2022-09-14T19:08:32.707Z,16.65
2022-09-14T19:11:11.016Z,16.90
2022-09-14T19:13:46.810Z,15.40
2022-09-14T19:18:54.283Z,14.23
2022-09-14T19:21:34.266Z,17.58
2022-09-14T19:24:09.746Z,19.33
2022-09-14T19:26:46.716Z,16.55
2022-09-14T19:29:23.640Z,20.35
2022-09-14T19:31:58.039Z,14.90
2022-09-14T19:34:32.717Z,19.58
2022-09-14T19:37:12.810Z,16.23
2022-09-14T19:39:47.181Z,18.10
2022-09-14T19:42:24.453Z,14.05
2022-09-14T19:45:00.640Z,12.10
2022-09-14T19:47:34.915Z,14.20
2022-09-14T19:50:12.728Z,16.20
2022-09-14T19:52:50.755Z,13.82
2022-09-14T19:55:27.819Z,12.88
2022-09-14T19:58:07.086Z,12.18
2022-09-14T20:00:41.055Z,11.32
2022-09-14T20:03:17.446Z,12.40
2022-09-14T20:06:03.238Z,12.57
2022-09-14T20:08:43.012Z,14.13
2022-09-14T20:11:19.948Z,17.10
2022-09-14T20:13:59.222Z,15.50
2022-09-14T20:16:37.492Z,12.30
2022-09-14T20:19:14.379Z,17.45
2022-09-14T20:21:50.291Z,19.27
2022-09-14T20:24:31.745Z,17.58
2022-09-14T20:27:10.615Z,13.70
2022-09-14T20:29:46.028Z,15.88
2022-09-14T20:32:20.910Z,18.92
2022-09-14T20:34:55.925Z,14.47
2022-09-14T20:37:30.369Z,17.90
2022-09-14T20:40:10.079Z,19.00
2022-09-14T20:42:45.262Z,19.38
2022-09-14T20:45:23.039Z,16.20
2022-09-14T20:47:58.749Z,12.80
2022-09-14T20:50:36.400Z,17.20
2022-09-14T20:53:11.851Z,14.20
2022-09-14T20:55:50.682Z,15.93
2022-09-14T20:58:28.417Z,13.52
2022-09-14T21:01:06.231Z,14.60
2022-09-14T21:03:43.759Z,16.67
2022-09-14T21:06:21.862Z,13.00
2022-09-14T21:08:55.660Z,12.85
2022-09-14T21:11:36.858Z,15.55
2022-09-14T21:14:15.569Z,17.30
2022-09-14T21:16:51.972Z,17.05
2022-09-14T21:19:27.832Z,15.73
2022-09-14T21:22:03.215Z,13.50
2022-09-14T21:24:37.967Z,19.25
2022-09-14T21:27:18.121Z,16.47
2022-09-14T21:29:56.747Z,11.65
2022-09-14T21:32:33.820Z,12.75
2022-09-14T21:35:10.625Z,14.93
2022-09-14T21:37:48.653Z,15.70
2022-09-14T21:40:25.571Z,15.45
2022-09-14T21:43:02.331Z,16.40
2022-09-14T21:45:38.528Z,17.48
2022-09-14T21:48:14.170Z,17.77
2022-09-14T21:50:51.749Z,16.15
2022-09-14T21:53:21.651Z,18.13
2022-09-14T21:56:00.297Z,17.48
2022-09-14T21:58:38.723Z,17.50
2022-09-14T22:01:12.724Z,16.02
2022-09-14T22:03:47.089Z,19.23
2022-09-14T22:06:23.037Z,19.50
2022-09-14T22:08:56.358Z,19.20
2022-09-14T22:11:33.495Z,21.88
2022-09-14T22:14:13.481Z,24.15
2022-09-14T22:16:47.471Z,21.90
2022-09-14T22:19:22.681Z,22.60
2022-09-14T22:21:56.891Z,23.40
2022-09-14T22:24:36.362Z,26.92
2022-09-14T22:27:11.666Z,25.63
2022-09-14T22:29:48.127Z,26.80
2022-09-14T22:32:22.003Z,28.60
2022-09-14T22:34:54.592Z,29.88
2022-09-14T22:37:28.675Z,28.35
2022-09-14T22:40:03.202Z,27.13
2022-09-14T22:42:37.368Z,28.23
2022-09-14T22:45:15.884Z,24.45
2022-09-14T22:47:48.935Z,24.23
2022-09-14T22:50:21.365Z,26.17
2022-09-14T22:52:55.455Z,23.27
2022-09-14T22:55:28.673Z,22.02
2022-09-14T22:58:02.636Z,23.67
2022-09-14T23:00:38.706Z,23.60
2022-09-14T23:03:12.793Z,21.10
2022-09-14T23:05:51.805Z,21.85
2022-09-14T23:08:24.530Z,16.73
2022-09-14T23:10:56.573Z,24.60
2022-09-14T23:13:28.854Z,21.73
2022-09-14T23:16:04.293Z,17.50
2022-09-14T23:18:36.509Z,22.35
2022-09-14T23:21:10.942Z,20.83
2022-09-14T23:23:43.520Z,22.23
2022-09-14T23:26:17.489Z,22.92
2022-09-14T23:28:54.819Z,19.83
2022-09-14T23:31:31.497Z,18.30
2022-09-14T23:34:06.053Z,20.40
2022-09-14T23:36:38.698Z,20.17
2022-09-14T23:39:12.957Z,17.33
2022-09-14T23:41:45.451Z,20.95
2022-09-14T23:44:17.469Z,20.23
2022-09-14T23:46:54.068Z,17.13
2022-09-14T23:49:26.353Z,17.92
2022-09-14T23:51:58.396Z,18.30
2022-09-14T23:54:32.406Z,18.20
2022-09-14T23:57:06.669Z,18.00
2022-09-14T23:59:38.719Z,17.05
